sensor_id;sensor_type;location;lat;lon;timestamp;temperature;humidity
12223;DHT22;6174;49.058;8.524;2024-01-15T06:04:59;0.20;99.90
12223;DHT22;6174;49.058;8.524;2024-01-15T06:07:28;0.30;99.90
12223;DHT22;6174;49.058;8.524;2024-01-15T06:15:28;0.30;99.90
12223;DHT22;6174;49.058;8.524;2024-01-15T06:24:39;0.30;99.90
12223;DHT22;6174;49.058;8.524;2024-01-15T06:27:08;0.30;99.90
12223;DHT22;6174;49.058;8.524;2024-01-15T06:29:38;0.50;99.90
12223;DHT22;6174;49.058;8.524;2024-01-15T06:32:24;0.40;99.90
12223;DHT22;6174;49.058;8.524;2024-01-15T06:35:06;0.30;99.90
12223;DHT22;6174;49.058;8.524;2024-01-15T06:37:38;0.40;99.90
12223;DHT22;6174;49.058;8.524;2024-01-15T06:42:51;0.40;99.90
12223;DHT22;6174;49.058;8.524;2024-01-15T06:45:34;0.40;99.90
12223;DHT22;6174;49.058;8.524;2024-01-15T06:48:04;0.50;99.90
12223;DHT22;6174;49.058;8.524;2024-01-15T06:51:07;0.40;99.90
12223;DHT22;6174;49.058;8.524;2024-01-15T06:53:56;0.30;99.90
12223;DHT22;6174;49.058;8.524;2024-01-15T07:06:19;0.30;99.90
12223;DHT22;6174;49.058;8.524;2024-01-15T07:08:46;0.40;99.90
12223;DHT22;6174;49.058;8.524;2024-01-15T07:11:13;0.40;99.90
12223;DHT22;6174;49.058;8.524;2024-01-15T07:13:40;0.40;99.90
12223;DHT22;6174;49.058;8.524;2024-01-15T07:16:06;0.40;99.90
12223;DHT22;6174;49.058;8.524;2024-01-15T07:18:33;0.40;99.90
12223;DHT22;6174;49.058;8.524;2024-01-15T07:21:00;0.40;99.90
12223;DHT22;6174;49.058;8.524;2024-01-15T07:23:31;0.40;99.90
12223;DHT22;6174;49.058;8.524;2024-01-15T07:25:57;0.40;99.90
12223;DHT22;6174;49.058;8.524;2024-01-15T07:28:24;0.40;99.90
12223;DHT22;6174;49.058;8.524;2024-01-15T07:30:51;0.40;99.90
12223;DHT22;6174;49.058;8.524;2024-01-15T07:33:17;0.50;99.90
12223;DHT22;6174;49.058;8.524;2024-01-15T07:35:44;0.40;99.90
12223;DHT22;6174;49.058;8.524;2024-01-15T07:38:12;0.50;99.90
12223;DHT22;6174;49.058;8.524;2024-01-15T07:40:40;0.50;99.90
12223;DHT22;6174;49.058;8.524;2024-01-15T07:43:07;0.50;99.90
12223;DHT22;6174;49.058;8.524;2024-01-15T07:45:33;0.50;99.90
12223;DHT22;6174;49.058;8.524;2024-01-15T07:48:00;0.50;99.90
12223;DHT22;6174;49.058;8.524;2024-01-15T07:50:28;0.50;99.90
12223;DHT22;6174;49.058;8.524;2024-01-15T07:52:55;0.60;99.90
12223;DHT22;6174;49.058;8.524;2024-01-15T07:55:22;0.60;99.90
12223;DHT22;6174;49.058;8.524;2024-01-15T07:57:50;0.60;99.90
12223;DHT22;6174;49.058;8.524;2024-01-15T08:00:18;0.60;99.90
12223;DHT22;6174;49.058;8.524;2024-01-15T08:02:45;0.60;99.90
12223;DHT22;6174;49.058;8.524;2024-01-15T08:05:11;0.60;99.90
12223;DHT22;6174;49.058;8.524;2024-01-15T08:07:38;0.70;99.90
12223;DHT22;6174;49.058;8.524;2024-01-15T08:10:05;0.70;99.90
12223;DHT22;6174;49.058;8.524;2024-01-15T08:12:32;0.70;99.90
12223;DHT22;6174;49.058;8.524;2024-01-15T08:15:00;0.70;99.90
12223;DHT22;6174;49.058;8.524;2024-01-15T08:17:27;0.70;99.90
12223;DHT22;6174;49.058;8.524;2024-01-15T08:19:54;0.70;99.90
12223;DHT22;6174;49.058;8.524;2024-01-15T08:22:22;0.80;99.90
12223;DHT22;6174;49.058;8.524;2024-01-15T08:24:49;0.80;99.90
12223;DHT22;6174;49.058;8.524;2024-01-15T08:27:16;0.70;99.90
12223;DHT22;6174;49.058;8.524;2024-01-15T08:29:42;0.70;99.90
12223;DHT22;6174;49.058;8.524;2024-01-15T08:32:11;0.70;99.90
12223;DHT22;6174;49.058;8.524;2024-01-15T08:34:40;0.70;99.90
12223;DHT22;6174;49.058;8.524;2024-01-15T08:37:07;0.60;99.90
12223;DHT22;6174;49.058;8.524;2024-01-15T08:39:34;0.60;99.90
12223;DHT22;6174;49.058;8.524;2024-01-15T08:42:04;0.60;99.90
12223;DHT22;6174;49.058;8.524;2024-01-15T08:44:31;0.70;99.90
12223;DHT22;6174;49.058;8.524;2024-01-15T08:46:57;0.70;99.90
12223;DHT22;6174;49.058;8.524;2024-01-15T08:49:25;0.70;99.90
12223;DHT22;6174;49.058;8.524;2024-01-15T08:51:52;0.80;99.90
12223;DHT22;6174;49.058;8.524;2024-01-15T08:54:19;0.80;99.90
12223;DHT22;6174;49.058;8.524;2024-01-15T08:56:46;0.80;99.90
12223;DHT22;6174;49.058;8.524;2024-01-15T08:59:12;0.80;99.90
12223;DHT22;6174;49.058;8.524;2024-01-15T09:01:39;0.80;99.90
12223;DHT22;6174;49.058;8.524;2024-01-15T09:04:06;0.90;99.90
12223;DHT22;6174;49.058;8.524;2024-01-15T09:06:34;0.90;99.90
12223;DHT22;6174;49.058;8.524;2024-01-15T09:09:01;1.00;99.90
12223;DHT22;6174;49.058;8.524;2024-01-15T09:11:27;1.00;99.90
12223;DHT22;6174;49.058;8.524;2024-01-15T09:13:54;1.10;99.90
12223;DHT22;6174;49.058;8.524;2024-01-15T09:16:21;1.10;99.90
12223;DHT22;6174;49.058;8.524;2024-01-15T09:18:48;1.10;99.90
12223;DHT22;6174;49.058;8.524;2024-01-15T09:21:15;1.10;99.90
12223;DHT22;6174;49.058;8.524;2024-01-15T09:23:43;1.10;99.90
12223;DHT22;6174;49.058;8.524;2024-01-15T09:26:10;1.20;99.90
12223;DHT22;6174;49.058;8.524;2024-01-15T09:28:37;1.20;99.90
12223;DHT22;6174;49.058;8.524;2024-01-15T09:31:03;1.20;99.90
12223;DHT22;6174;49.058;8.524;2024-01-15T09:33:31;1.20;99.90
12223;DHT22;6174;49.058;8.524;2024-01-15T09:36:00;1.20;99.90
12223;DHT22;6174;49.058;8.524;2024-01-15T09:38:27;1.20;99.90
12223;DHT22;6174;49.058;8.524;2024-01-15T09:40:55;1.20;99.90
12223;DHT22;6174;49.058;8.524;2024-01-15T09:43:22;1.30;99.90
12223;DHT22;6174;49.058;8.524;2024-01-15T09:45:49;1.30;99.90
12223;DHT22;6174;49.058;8.524;2024-01-15T09:48:16;1.30;99.90
12223;DHT22;6174;49.058;8.524;2024-01-15T09:50:43;1.30;99.90
12223;DHT22;6174;49.058;8.524;2024-01-15T09:53:10;1.30;99.90
12223;DHT22;6174;49.058;8.524;2024-01-15T09:55:37;1.30;99.90
12223;DHT22;6174;49.058;8.524;2024-01-15T09:58:06;1.30;99.90
12223;DHT22;6174;49.058;8.524;2024-01-15T10:00:33;1.40;99.90
12223;DHT22;6174;49.058;8.524;2024-01-15T10:03:03;1.40;99.90
12223;DHT22;6174;49.058;8.524;2024-01-15T10:05:30;1.40;99.90
12223;DHT22;6174;49.058;8.524;2024-01-15T10:07:57;1.40;99.90
12223;DHT22;6174;49.058;8.524;2024-01-15T10:10:24;1.50;99.90
12223;DHT22;6174;49.058;8.524;2024-01-15T10:12:50;1.50;99.90
12223;DHT22;6174;49.058;8.524;2024-01-15T10:15:22;1.40;99.90
12223;DHT22;6174;49.058;8.524;2024-01-15T10:17:49;1.30;99.90
12223;DHT22;6174;49.058;8.524;2024-01-15T10:20:16;1.30;99.90
12223;DHT22;6174;49.058;8.524;2024-01-15T10:22:42;1.20;99.90
12223;DHT22;6174;49.058;8.524;2024-01-15T10:25:12;1.20;99.90
12223;DHT22;6174;49.058;8.524;2024-01-15T10:27:40;1.20;99.90
12223;DHT22;6174;49.058;8.524;2024-01-15T10:30:08;1.20;99.90
12223;DHT22;6174;49.058;8.524;2024-01-15T10:32:36;1.20;99.90
12223;DHT22;6174;49.058;8.524;2024-01-15T10:35:04;1.10;99.90
12223;DHT22;6174;49.058;8.524;2024-01-15T10:37:33;1.10;99.90
12223;DHT22;6174;49.058;8.524;2024-01-15T10:40:01;1.10;99.90
12223;DHT22;6174;49.058;8.524;2024-01-15T10:42:30;1.10;99.90
12223;DHT22;6174;49.058;8.524;2024-01-15T10:44:57;1.10;99.90
12223;DHT22;6174;49.058;8.524;2024-01-15T10:47:24;1.00;99.90
12223;DHT22;6174;49.058;8.524;2024-01-15T10:49:52;1.00;99.90
12223;DHT22;6174;49.058;8.524;2024-01-15T10:52:19;1.00;99.90
12223;DHT22;6174;49.058;8.524;2024-01-15T10:54:47;1.00;99.90
12223;DHT22;6174;49.058;8.524;2024-01-15T10:57:15;1.10;99.90
12223;DHT22;6174;49.058;8.524;2024-01-15T10:59:42;1.10;99.90
12223;DHT22;6174;49.058;8.524;2024-01-15T11:02:09;1.10;99.90
12223;DHT22;6174;49.058;8.524;2024-01-15T11:04:36;1.00;99.90
12223;DHT22;6174;49.058;8.524;2024-01-15T11:07:05;1.00;99.90
12223;DHT22;6174;49.058;8.524;2024-01-15T11:09:33;1.00;99.90
12223;DHT22;6174;49.058;8.524;2024-01-15T11:12:07;1.00;99.90
12223;DHT22;6174;49.058;8.524;2024-01-15T11:14:34;1.00;99.90
12223;DHT22;6174;49.058;8.524;2024-01-15T11:17:01;1.10;99.90
12223;DHT22;6174;49.058;8.524;2024-01-15T11:19:36;1.00;99.90
12223;DHT22;6174;49.058;8.524;2024-01-15T11:22:04;1.10;99.90
12223;DHT22;6174;49.058;8.524;2024-01-15T11:24:39;1.10;99.90
12223;DHT22;6174;49.058;8.524;2024-01-15T11:27:06;1.10;99.90
12223;DHT22;6174;49.058;8.524;2024-01-15T11:29:35;1.10;99.90
12223;DHT22;6174;49.058;8.524;2024-01-15T11:32:03;1.10;99.90
12223;DHT22;6174;49.058;8.524;2024-01-15T11:34:50;1.10;99.90
12223;DHT22;6174;49.058;8.524;2024-01-15T11:37:18;1.10;99.90
12223;DHT22;6174;49.058;8.524;2024-01-15T11:39:45;1.20;99.90
12223;DHT22;6174;49.058;8.524;2024-01-15T11:42:14;1.10;99.90
12223;DHT22;6174;49.058;8.524;2024-01-15T11:44:41;1.10;99.90
12223;DHT22;6174;49.058;8.524;2024-01-15T11:47:09;1.10;99.90
12223;DHT22;6174;49.058;8.524;2024-01-15T11:49:58;1.10;99.90
12223;DHT22;6174;49.058;8.524;2024-01-15T11:52:32;1.10;99.90
12223;DHT22;6174;49.058;8.524;2024-01-15T11:55:05;1.10;99.90
12223;DHT22;6174;49.058;8.524;2024-01-15T11:57:40;1.10;99.90
12223;DHT22;6174;49.058;8.524;2024-01-15T12:00:09;1.10;99.90
12223;DHT22;6174;49.058;8.524;2024-01-15T12:02:37;1.20;99.90
12223;DHT22;6174;49.058;8.524;2024-01-15T12:05:04;1.20;99.90
12223;DHT22;6174;49.058;8.524;2024-01-15T12:07:34;1.20;99.90
12223;DHT22;6174;49.058;8.524;2024-01-15T12:10:01;1.20;99.90
12223;DHT22;6174;49.058;8.524;2024-01-15T12:12:37;1.20;99.90
12223;DHT22;6174;49.058;8.524;2024-01-15T12:15:06;1.20;99.90
12223;DHT22;6174;49.058;8.524;2024-01-15T12:17:34;1.30;99.90
12223;DHT22;6174;49.058;8.524;2024-01-15T12:20:02;1.30;99.90
12223;DHT22;6174;49.058;8.524;2024-01-15T12:22:29;1.30;99.90
12223;DHT22;6174;49.058;8.524;2024-01-15T12:24:57;1.30;99.90
12223;DHT22;6174;49.058;8.524;2024-01-15T12:27:24;1.30;99.90
12223;DHT22;6174;49.058;8.524;2024-01-15T12:29:52;1.30;99.90
12223;DHT22;6174;49.058;8.524;2024-01-15T12:32:19;1.30;99.90
12223;DHT22;6174;49.058;8.524;2024-01-15T12:34:48;1.40;99.90
12223;DHT22;6174;49.058;8.524;2024-01-15T12:37:15;1.40;99.90
12223;DHT22;6174;49.058;8.524;2024-01-15T12:39:44;1.40;99.90
12223;DHT22;6174;49.058;8.524;2024-01-15T12:42:14;1.50;99.90
12223;DHT22;6174;49.058;8.524;2024-01-15T12:44:41;1.40;99.90
12223;DHT22;6174;49.058;8.524;2024-01-15T12:47:07;1.40;99.90
12223;DHT22;6174;49.058;8.524;2024-01-15T12:49:36;1.50;99.90
12223;DHT22;6174;49.058;8.524;2024-01-15T12:52:04;1.50;99.90
12223;DHT22;6174;49.058;8.524;2024-01-15T12:54:31;1.60;99.90
12223;DHT22;6174;49.058;8.524;2024-01-15T12:56:58;1.60;99.90
12223;DHT22;6174;49.058;8.524;2024-01-15T12:59:26;1.60;99.90
12223;DHT22;6174;49.058;8.524;2024-01-15T13:01:53;1.70;99.90
12223;DHT22;6174;49.058;8.524;2024-01-15T13:04:21;1.70;99.90
12223;DHT22;6174;49.058;8.524;2024-01-15T13:06:49;1.70;99.90
12223;DHT22;6174;49.058;8.524;2024-01-15T13:09:16;1.70;99.90
12223;DHT22;6174;49.058;8.524;2024-01-15T13:11:42;1.80;99.90
12223;DHT22;6174;49.058;8.524;2024-01-15T13:14:09;1.80;99.90
12223;DHT22;6174;49.058;8.524;2024-01-15T13:16:37;1.80;99.90
12223;DHT22;6174;49.058;8.524;2024-01-15T13:19:04;1.90;99.90
12223;DHT22;6174;49.058;8.524;2024-01-15T13:21:32;1.90;99.90
12223;DHT22;6174;49.058;8.524;2024-01-15T13:23:59;1.90;99.90
12223;DHT22;6174;49.058;8.524;2024-01-15T13:26:25;2.00;99.90
12223;DHT22;6174;49.058;8.524;2024-01-15T13:28:53;2.00;99.90
12223;DHT22;6174;49.058;8.524;2024-01-15T13:31:20;2.10;99.90
12223;DHT22;6174;49.058;8.524;2024-01-15T13:33:48;2.00;99.90
12223;DHT22;6174;49.058;8.524;2024-01-15T13:36:15;2.00;99.90
12223;DHT22;6174;49.058;8.524;2024-01-15T13:38:42;2.00;99.90
12223;DHT22;6174;49.058;8.524;2024-01-15T13:41:09;2.00;99.90
12223;DHT22;6174;49.058;8.524;2024-01-15T13:43:35;2.00;99.90
12223;DHT22;6174;49.058;8.524;2024-01-15T13:46:02;2.00;99.90
12223;DHT22;6174;49.058;8.524;2024-01-15T13:48:30;2.10;99.90
12223;DHT22;6174;49.058;8.524;2024-01-15T13:50:59;2.10;99.90
12223;DHT22;6174;49.058;8.524;2024-01-15T13:53:26;2.10;99.90
12223;DHT22;6174;49.058;8.524;2024-01-15T13:55:52;2.10;99.90
12223;DHT22;6174;49.058;8.524;2024-01-15T13:58:19;2.10;99.90
12223;DHT22;6174;49.058;8.524;2024-01-15T14:00:47;2.10;99.90
12223;DHT22;6174;49.058;8.524;2024-01-15T14:03:14;2.20;99.90
12223;DHT22;6174;49.058;8.524;2024-01-15T14:05:41;2.20;99.90
12223;DHT22;6174;49.058;8.524;2024-01-15T14:08:09;2.20;99.90
12223;DHT22;6174;49.058;8.524;2024-01-15T14:10:36;2.20;99.90
12223;DHT22;6174;49.058;8.524;2024-01-15T14:13:04;2.20;99.90
12223;DHT22;6174;49.058;8.524;2024-01-15T14:15:30;2.20;99.90
12223;DHT22;6174;49.058;8.524;2024-01-15T14:17:57;2.20;99.90
12223;DHT22;6174;49.058;8.524;2024-01-15T14:20:24;2.20;99.90
12223;DHT22;6174;49.058;8.524;2024-01-15T14:22:51;2.20;99.90
12223;DHT22;6174;49.058;8.524;2024-01-15T14:25:19;2.20;99.90
12223;DHT22;6174;49.058;8.524;2024-01-15T14:27:46;2.20;99.90
12223;DHT22;6174;49.058;8.524;2024-01-15T14:30:14;2.20;99.90
12223;DHT22;6174;49.058;8.524;2024-01-15T14:32:41;2.20;99.90
12223;DHT22;6174;49.058;8.524;2024-01-15T14:35:08;2.30;99.90
12223;DHT22;6174;49.058;8.524;2024-01-15T14:37:36;2.20;99.90
12223;DHT22;6174;49.058;8.524;2024-01-15T14:40:03;2.20;99.90
12223;DHT22;6174;49.058;8.524;2024-01-15T14:42:33;2.30;99.90
12223;DHT22;6174;49.058;8.524;2024-01-15T14:45:00;2.20;99.90
12223;DHT22;6174;49.058;8.524;2024-01-15T14:47:28;2.30;99.90
12223;DHT22;6174;49.058;8.524;2024-01-15T14:49:55;2.30;99.90
12223;DHT22;6174;49.058;8.524;2024-01-15T14:52:23;2.30;99.90
12223;DHT22;6174;49.058;8.524;2024-01-15T14:54:50;2.30;99.90
12223;DHT22;6174;49.058;8.524;2024-01-15T14:57:16;2.30;99.90
12223;DHT22;6174;49.058;8.524;2024-01-15T14:59:45;2.30;99.90
12223;DHT22;6174;49.058;8.524;2024-01-15T15:02:11;2.30;99.90
12223;DHT22;6174;49.058;8.524;2024-01-15T15:04:39;2.30;99.90
12223;DHT22;6174;49.058;8.524;2024-01-15T15:07:07;2.30;99.90
12223;DHT22;6174;49.058;8.524;2024-01-15T15:09:34;2.30;99.90
12223;DHT22;6174;49.058;8.524;2024-01-15T15:12:03;2.30;99.90
12223;DHT22;6174;49.058;8.524;2024-01-15T15:14:30;2.30;99.90
12223;DHT22;6174;49.058;8.524;2024-01-15T15:17:04;2.30;99.90
12223;DHT22;6174;49.058;8.524;2024-01-15T15:19:31;2.30;99.90
12223;DHT22;6174;49.058;8.524;2024-01-15T15:21:58;2.30;99.90
12223;DHT22;6174;49.058;8.524;2024-01-15T15:24:25;2.30;99.90
12223;DHT22;6174;49.058;8.524;2024-01-15T15:26:54;2.30;99.90
12223;DHT22;6174;49.058;8.524;2024-01-15T15:29:21;2.30;99.90
12223;DHT22;6174;49.058;8.524;2024-01-15T15:31:50;2.30;99.90
12223;DHT22;6174;49.058;8.524;2024-01-15T15:34:18;2.30;99.90
12223;DHT22;6174;49.058;8.524;2024-01-15T15:36:45;2.30;99.90
12223;DHT22;6174;49.058;8.524;2024-01-15T15:39:11;2.20;99.90
12223;DHT22;6174;49.058;8.524;2024-01-15T15:41:41;2.20;99.90
12223;DHT22;6174;49.058;8.524;2024-01-15T15:44:07;2.10;99.90
12223;DHT22;6174;49.058;8.524;2024-01-15T15:46:35;2.10;99.90
12223;DHT22;6174;49.058;8.524;2024-01-15T15:49:02;2.10;99.90
12223;DHT22;6174;49.058;8.524;2024-01-15T15:51:33;2.10;99.90
12223;DHT22;6174;49.058;8.524;2024-01-15T15:54:01;2.10;99.90
12223;DHT22;6174;49.058;8.524;2024-01-15T15:56:28;2.20;99.90
12223;DHT22;6174;49.058;8.524;2024-01-15T15:58:58;2.10;99.90
12223;DHT22;6174;49.058;8.524;2024-01-15T16:01:25;2.10;99.90
12223;DHT22;6174;49.058;8.524;2024-01-15T16:03:51;2.10;99.90
12223;DHT22;6174;49.058;8.524;2024-01-15T16:06:18;2.20;99.90
12223;DHT22;6174;49.058;8.524;2024-01-15T16:08:46;2.20;99.90
12223;DHT22;6174;49.058;8.524;2024-01-15T16:11:13;2.20;99.90
12223;DHT22;6174;49.058;8.524;2024-01-15T16:13:40;2.20;99.90
12223;DHT22;6174;49.058;8.524;2024-01-15T16:16:07;2.20;99.90
12223;DHT22;6174;49.058;8.524;2024-01-15T16:18:33;2.20;99.90
12223;DHT22;6174;49.058;8.524;2024-01-15T16:21:00;2.20;99.90
12223;DHT22;6174;49.058;8.524;2024-01-15T16:23:27;2.20;99.90
12223;DHT22;6174;49.058;8.524;2024-01-15T16:25:55;2.10;99.90
12223;DHT22;6174;49.058;8.524;2024-01-15T16:28:25;2.10;99.90
12223;DHT22;6174;49.058;8.524;2024-01-15T16:30:55;2.10;99.90
12223;DHT22;6174;49.058;8.524;2024-01-15T16:33:22;2.10;99.90
12223;DHT22;6174;49.058;8.524;2024-01-15T16:35:49;2.10;99.90
12223;DHT22;6174;49.058;8.524;2024-01-15T16:38:17;2.20;99.90
12223;DHT22;6174;49.058;8.524;2024-01-15T16:40:45;2.10;99.90
12223;DHT22;6174;49.058;8.524;2024-01-15T16:43:17;2.10;99.90
12223;DHT22;6174;49.058;8.524;2024-01-15T16:45:43;2.20;99.90
12223;DHT22;6174;49.058;8.524;2024-01-15T16:48:11;2.10;99.90
12223;DHT22;6174;49.058;8.524;2024-01-15T16:50:38;2.20;99.90
12223;DHT22;6174;49.058;8.524;2024-01-15T17:31:39;2.10;99.90
12223;DHT22;6174;49.058;8.524;2024-01-15T17:34:11;2.40;99.90
12223;DHT22;6174;49.058;8.524;2024-01-15T17:36:39;2.20;99.90
12223;DHT22;6174;49.058;8.524;2024-01-15T17:39:06;2.10;99.90
12223;DHT22;6174;49.058;8.524;2024-01-15T17:41:39;2.20;99.90
12223;DHT22;6174;49.058;8.524;2024-01-15T17:44:06;2.10;99.90
12223;DHT22;6174;49.058;8.524;2024-01-15T17:46:50;2.10;99.90
12223;DHT22;6174;49.058;8.524;2024-01-15T17:49:20;2.00;99.90
12223;DHT22;6174;49.058;8.524;2024-01-15T17:51:50;2.10;99.90
12223;DHT22;6174;49.058;8.524;2024-01-15T17:54:25;2.40;99.90
12223;DHT22;6174;49.058;8.524;2024-01-15T17:56:53;2.10;99.90
12223;DHT22;6174;49.058;8.524;2024-01-15T17:59:21;2.00;99.90
12223;DHT22;6174;49.058;8.524;2024-01-15T18:01:52;2.20;99.90
12223;DHT22;6174;49.058;8.524;2024-01-15T18:04:20;2.00;99.90
12223;DHT22;6174;49.058;8.524;2024-01-15T18:06:56;2.00;99.90
12223;DHT22;6174;49.058;8.524;2024-01-15T18:09:26;2.10;99.90
12223;DHT22;6174;49.058;8.524;2024-01-15T18:11:53;2.10;99.90
12223;DHT22;6174;49.058;8.524;2024-01-15T18:14:24;2.10;99.90
12223;DHT22;6174;49.058;8.524;2024-01-15T18:16:55;2.00;99.90
12223;DHT22;6174;49.058;8.524;2024-01-15T18:19:22;2.10;99.90
12223;DHT22;6174;49.058;8.524;2024-01-15T18:21:49;2.10;99.90
12223;DHT22;6174;49.058;8.524;2024-01-15T18:24:17;2.10;99.90
12223;DHT22;6174;49.058;8.524;2024-01-15T18:26:50;2.10;99.90
12223;DHT22;6174;49.058;8.524;2024-01-15T18:29:17;2.00;99.90
12223;DHT22;6174;49.058;8.524;2024-01-15T18:31:47;2.00;99.90
12223;DHT22;6174;49.058;8.524;2024-01-15T18:34:37;2.00;99.90
12223;DHT22;6174;49.058;8.524;2024-01-15T18:37:05;2.00;99.90
12223;DHT22;6174;49.058;8.524;2024-01-15T18:39:32;2.00;99.90
12223;DHT22;6174;49.058;8.524;2024-01-15T18:44:44;2.10;99.90
12223;DHT22;6174;49.058;8.524;2024-01-15T18:47:21;2.00;99.90
12223;DHT22;6174;49.058;8.524;2024-01-15T18:49:59;2.30;99.90
12223;DHT22;6174;49.058;8.524;2024-01-15T18:52:27;2.00;99.90
12223;DHT22;6174;49.058;8.524;2024-01-15T18:55:15;2.00;99.90
12223;DHT22;6174;49.058;8.524;2024-01-15T18:57:49;1.90;99.90
12223;DHT22;6174;49.058;8.524;2024-01-15T19:00:40;1.90;99.90
12223;DHT22;6174;49.058;8.524;2024-01-15T19:03:07;1.80;99.90
12223;DHT22;6174;49.058;8.524;2024-01-15T19:05:38;2.00;99.90
12223;DHT22;6174;49.058;8.524;2024-01-15T19:08:06;1.80;99.90
12223;DHT22;6174;49.058;8.524;2024-01-15T19:10:47;1.90;99.90
12223;DHT22;6174;49.058;8.524;2024-01-15T19:13:15;1.80;99.90
12223;DHT22;6174;49.058;8.524;2024-01-15T19:15:42;1.80;99.90
12223;DHT22;6174;49.058;8.524;2024-01-15T19:18:10;2.00;99.90
12223;DHT22;6174;49.058;8.524;2024-01-15T19:20:39;1.80;99.90
12223;DHT22;6174;49.058;8.524;2024-01-15T19:23:05;1.80;99.90
12223;DHT22;6174;49.058;8.524;2024-01-15T19:25:33;1.80;99.90
12223;DHT22;6174;49.058;8.524;2024-01-15T19:28:03;1.90;99.90
12223;DHT22;6174;49.058;8.524;2024-01-15T19:30:30;1.90;99.90
12223;DHT22;6174;49.058;8.524;2024-01-15T19:32:57;1.90;99.90
12223;DHT22;6174;49.058;8.524;2024-01-15T19:35:27;1.90;99.90
12223;DHT22;6174;49.058;8.524;2024-01-15T19:37:55;1.80;99.90
12223;DHT22;6174;49.058;8.524;2024-01-15T19:40:28;1.80;99.90
12223;DHT22;6174;49.058;8.524;2024-01-15T19:49:24;1.80;99.90
12223;DHT22;6174;49.058;8.524;2024-01-15T19:51:54;1.70;99.90
12223;DHT22;6174;49.058;8.524;2024-01-15T19:54:38;2.20;99.90
12223;DHT22;6174;49.058;8.524;2024-01-15T19:57:13;1.70;99.90
12223;DHT22;6174;49.058;8.524;2024-01-15T19:59:54;1.70;99.90
12223;DHT22;6174;49.058;8.524;2024-01-15T20:02:25;1.70;99.90
12223;DHT22;6174;49.058;8.524;2024-01-15T20:04:54;1.60;99.90
12223;DHT22;6174;49.058;8.524;2024-01-15T20:07:39;1.60;99.90
12223;DHT22;6174;49.058;8.524;2024-01-15T20:10:17;1.60;99.90
12223;DHT22;6174;49.058;8.524;2024-01-15T20:12:45;1.80;99.90
12223;DHT22;6174;49.058;8.524;2024-01-15T20:15:32;1.70;99.90
12223;DHT22;6174;49.058;8.524;2024-01-15T20:18:03;1.60;99.90
12223;DHT22;6174;49.058;8.524;2024-01-15T20:20:40;1.60;99.90
12223;DHT22;6174;49.058;8.524;2024-01-15T20:23:09;1.60;99.90
12223;DHT22;6174;49.058;8.524;2024-01-15T20:25:40;1.60;99.90
12223;DHT22;6174;49.058;8.524;2024-01-15T20:28:11;1.60;99.90
12223;DHT22;6174;49.058;8.524;2024-01-15T20:33:23;1.60;99.90
12223;DHT22;6174;49.058;8.524;2024-01-15T20:35:50;1.60;99.90
12223;DHT22;6174;49.058;8.524;2024-01-15T20:38:18;1.70;99.90
12223;DHT22;6174;49.058;8.524;2024-01-15T20:40:46;1.70;99.90
12223;DHT22;6174;49.058;8.524;2024-01-15T20:43:13;1.60;99.90
12223;DHT22;6174;49.058;8.524;2024-01-15T20:45:40;1.70;99.90
12223;DHT22;6174;49.058;8.524;2024-01-15T20:48:07;1.70;99.90
12223;DHT22;6174;49.058;8.524;2024-01-15T20:50:34;1.70;99.90
12223;DHT22;6174;49.058;8.524;2024-01-15T20:53:00;1.70;99.90
12223;DHT22;6174;49.058;8.524;2024-01-15T20:55:27;1.70;99.90
12223;DHT22;6174;49.058;8.524;2024-01-15T20:57:56;1.70;99.90
12223;DHT22;6174;49.058;8.524;2024-01-15T21:00:22;1.60;99.90
12223;DHT22;6174;49.058;8.524;2024-01-15T21:02:49;1.70;99.90
12223;DHT22;6174;49.058;8.524;2024-01-15T21:05:17;1.70;99.90
12223;DHT22;6174;49.058;8.524;2024-01-15T21:07:44;1.70;99.90
12223;DHT22;6174;49.058;8.524;2024-01-15T21:10:11;1.70;99.90
12223;DHT22;6174;49.058;8.524;2024-01-15T21:12:38;1.60;99.90
12223;DHT22;6174;49.058;8.524;2024-01-15T21:15:08;1.60;99.90
12223;DHT22;6174;49.058;8.524;2024-01-15T21:17:35;1.60;99.90
12223;DHT22;6174;49.058;8.524;2024-01-15T21:20:02;1.70;99.90
12223;DHT22;6174;49.058;8.524;2024-01-15T21:22:33;1.60;99.90
12223;DHT22;6174;49.058;8.524;2024-01-15T21:25:00;1.60;99.90
12223;DHT22;6174;49.058;8.524;2024-01-15T21:27:27;1.50;99.90
12223;DHT22;6174;49.058;8.524;2024-01-15T21:29:54;1.50;99.90
12223;DHT22;6174;49.058;8.524;2024-01-15T21:32:22;1.50;99.90
12223;DHT22;6174;49.058;8.524;2024-01-15T21:34:49;1.50;99.90
12223;DHT22;6174;49.058;8.524;2024-01-15T21:37:16;1.50;99.90
12223;DHT22;6174;49.058;8.524;2024-01-15T21:39:43;1.50;99.90
12223;DHT22;6174;49.058;8.524;2024-01-15T21:42:10;1.60;99.90
12223;DHT22;6174;49.058;8.524;2024-01-15T21:44:37;1.50;99.90
12223;DHT22;6174;49.058;8.524;2024-01-15T21:47:03;1.50;99.90
12223;DHT22;6174;49.058;8.524;2024-01-15T21:49:32;1.50;99.90
12223;DHT22;6174;49.058;8.524;2024-01-15T21:51:58;1.50;99.90
12223;DHT22;6174;49.058;8.524;2024-01-15T21:54:25;1.40;99.90
12223;DHT22;6174;49.058;8.524;2024-01-15T21:56:52;1.40;99.90
12223;DHT22;6174;49.058;8.524;2024-01-15T21:59:21;1.40;99.90
12223;DHT22;6174;49.058;8.524;2024-01-15T22:01:50;1.40;99.90
12223;DHT22;6174;49.058;8.524;2024-01-15T22:15:01;1.40;99.90
12223;DHT22;6174;49.058;8.524;2024-01-15T22:27:48;1.30;99.90
12223;DHT22;6174;49.058;8.524;2024-01-15T22:42:57;1.20;99.90
12223;DHT22;6174;49.058;8.524;2024-01-15T22:52:17;1.20;99.90
12223;DHT22;6174;49.058;8.524;2024-01-15T22:54:46;1.20;99.90
12223;DHT22;6174;49.058;8.524;2024-01-15T23:01:13;1.30;99.90
12223;DHT22;6174;49.058;8.524;2024-01-15T23:04:05;1.40;99.90
12223;DHT22;6174;49.058;8.524;2024-01-15T23:17:07;1.20;99.90
12223;DHT22;6174;49.058;8.524;2024-01-15T23:19:53;1.20;99.90
12223;DHT22;6174;49.058;8.524;2024-01-15T23:26:21;1.20;99.90
